X  Bliska Dane z Metar lotniska     EPKK Kraków John Paul II International Airport
Temperatura
-4°C Temperatura
-7°C Punkt rosy
80% Wilgotność



Wiatr
3 KM/H
2 MPH
1 M/S
2 KTS



160°
SSE
Warunki bieżące

Częściowe zachmurzenie Częściowe zachmurzenie
Ciśnienie 1037.91 (hPa) - 30.65 (inHg)
Widoczność 6.2 (mile) - 10 (km)
Lotnisko
Kod lotniska EPKK

Położenie: Kraków John Paul II International Airport
Odległość: 14 (km)

Metar:
EPKK 060800Z 16002KT 9999 FEW030 M04/M07 Q1038

Czas: 06-02-2023 09:00 CET